Grantsville, Maryland
Current Conditions -  °F | °C
As of 12:00 PM on Sunday 23 Nov 2014 (Local Time) from K2G4 Reporting Station
Clear Clear  
Wind Chill: 55°   Ceiling: Unl
Heat Index: 55°   Visibility: 10mi
Dew Point: 39°   Wind: 10mph
Humidity: 54%   Direction: 160°SSE
Pressure: 30.06"   Gusts: NA
Location:  39.7°N, 79.15°W
Report Text: K2G4 231700Z AUTO 16009KT 10SM CLR 13/04 A3006 RMK AO1
Loading
Personal Weather Stations






























Interactive Weather Map New forecast layout! Learn more

10-Day Weather Forecast

Advertisements
Track Severe Weather on mobile